Decoded Metar for LIRU (ROME in ITALY) (IATA:N/A) | Meteo·Mobile Aviation Weather
aviador You're here:

LIRU Decoded Metar

ROME in ITALY
Report Time2018-08-21 11:50:00
UTC Time2018-08-21 12:10:29
Flight Rules vfr VFR
Wind330° at 04 kt
W.Decomp.*RWY 34: 3.9 kt HW 0.8 kt LCW
W.Rank330° ranks 23
Current wind is below 330° avg. (5.9)
Visibility9999 m
Phenomena:N/A
Clouds:N/A
Expected CloudBase > 6,800 ft AGL from Temp-Dew spread
CeilingNone
Temp33°C (ISA +18)
Dew Point16°C (36% RH)
Heat Index33.0°C
QNH1013 hPa
Density Alt2,392 ft
Elevation79 ft
Report Wrong Elevation
Raw Report
METAR LIRU 211150Z 33004KT CAVOK 33/16 Q1013=

Extra information for LIRU:More info

Metar Taf Metar & Taf Last 4 Metars F.Rules Stats Wind Profile Meteogram Temp Stats Airport Information Weather charts Add Link Nearby VenuesMetar ALERT Operation Metar Decoded Social comments